createdAt,value
2018-11-21T00:01:13.712Z,21.77
2018-11-21T00:03:44.328Z,21.63
2018-11-21T00:06:13.082Z,22.10
2018-11-21T00:08:42.410Z,21.03
2018-11-21T00:11:11.188Z,22.23
2018-11-21T00:13:40.059Z,21.83
2018-11-21T00:16:09.111Z,21.23
2018-11-21T00:18:37.884Z,19.97
2018-11-21T00:21:06.679Z,20.07
2018-11-21T00:23:35.469Z,19.27
2018-11-21T00:26:04.886Z,18.17
2018-11-21T00:28:33.751Z,23.30
2018-11-21T00:31:02.510Z,20.03
2018-11-21T00:33:31.888Z,19.50
2018-11-21T00:36:00.740Z,21.37
2018-11-21T00:38:29.578Z,21.33
2018-11-21T00:40:58.329Z,18.07
2018-11-21T00:43:27.167Z,21.83
2018-11-21T00:45:55.937Z,20.00
2018-11-21T00:48:24.706Z,17.87
2018-11-21T00:50:53.535Z,21.57
2018-11-21T00:53:22.287Z,20.37
2018-11-21T00:55:51.073Z,18.97
2018-11-21T00:58:19.871Z,17.93
2018-11-21T01:00:48.615Z,19.63
2018-11-21T01:03:17.398Z,19.17
2018-11-21T01:05:46.245Z,18.10
2018-11-21T01:08:15.081Z,18.93
2018-11-21T01:10:43.879Z,17.37
2018-11-21T01:13:12.725Z,17.67
2018-11-21T01:15:41.910Z,19.10
2018-11-21T01:18:10.667Z,19.67
2018-11-21T01:20:39.443Z,17.93
2018-11-21T01:23:08.428Z,17.57
2018-11-21T01:25:37.242Z,18.20
2018-11-21T01:28:06.060Z,17.27
2018-11-21T01:30:34.904Z,20.83
2018-11-21T01:33:09.574Z,18.23
2018-11-21T01:35:32.679Z,19.53
2018-11-21T01:38:01.473Z,19.30
2018-11-21T01:40:30.442Z,18.50
2018-11-21T01:42:59.245Z,19.80
2018-11-21T01:45:28.110Z,18.03
2018-11-21T01:47:56.955Z,16.70
2018-11-21T01:50:26.985Z,16.03
2018-11-21T01:52:55.783Z,18.27
2018-11-21T01:55:24.596Z,24.57
2018-11-21T01:57:53.380Z,20.30
2018-11-21T02:00:22.177Z,18.03
2018-11-21T02:02:50.914Z,17.27
2018-11-21T02:05:19.659Z,16.63
2018-11-21T02:07:48.566Z,18.87
2018-11-21T02:10:17.293Z,15.20
2018-11-21T02:12:46.114Z,17.03
2018-11-21T02:15:15.029Z,16.80
2018-11-21T02:17:43.788Z,17.83
2018-11-21T02:20:12.588Z,19.33
2018-11-21T02:22:41.548Z,17.73
2018-11-21T02:25:10.307Z,17.37
2018-11-21T02:27:39.055Z,16.60
2018-11-21T02:30:08.793Z,17.03
2018-11-21T02:32:37.553Z,15.93
2018-11-21T02:35:07.425Z,17.30
2018-11-21T02:37:36.455Z,18.47
2018-11-21T02:40:05.443Z,16.90
2018-11-21T02:42:34.283Z,17.00
2018-11-21T02:45:03.021Z,17.30
2018-11-21T02:47:31.758Z,19.77
2018-11-21T02:50:00.630Z,15.97
2018-11-21T02:52:29.499Z,15.93
2018-11-21T02:54:58.273Z,16.47
2018-11-21T02:57:28.604Z,15.07
2018-11-21T02:59:59.917Z,16.80
2018-11-21T03:02:28.741Z,18.37
2018-11-21T03:05:00.282Z,16.30
2018-11-21T03:07:29.063Z,19.53
2018-11-21T03:09:57.931Z,18.30
2018-11-21T03:12:26.799Z,16.90
2018-11-21T03:14:57.030Z,17.13
2018-11-21T03:17:27.253Z,18.27
2018-11-21T03:19:56.030Z,15.77
2018-11-21T03:24:53.996Z,17.03
2018-11-21T03:27:22.798Z,17.60
2018-11-21T03:29:51.643Z,18.87
2018-11-21T03:32:20.427Z,18.13
2018-11-21T03:34:49.583Z,20.73
2018-11-21T03:37:18.447Z,18.50
2018-11-21T03:39:47.282Z,17.23
2018-11-21T03:42:16.048Z,18.17
2018-11-21T03:44:44.916Z,18.83
2018-11-21T03:47:13.643Z,20.00
2018-11-21T03:49:42.442Z,17.73
2018-11-21T03:52:11.266Z,18.60
2018-11-21T03:54:40.053Z,15.87
2018-11-21T03:57:08.793Z,18.50
2018-11-21T03:59:37.600Z,18.13
2018-11-21T04:02:06.424Z,17.30
2018-11-21T04:04:35.183Z,17.63
2018-11-21T04:07:03.995Z,17.03
2018-11-21T04:09:32.739Z,16.60
2018-11-21T04:12:01.513Z,18.20
2018-11-21T04:14:30.263Z,16.60
2018-11-21T04:17:00.757Z,13.97
2018-11-21T04:19:29.490Z,17.87
2018-11-21T04:21:58.312Z,15.73
2018-11-21T04:24:27.072Z,17.10
2018-11-21T04:26:55.835Z,16.77
2018-11-21T04:29:24.689Z,15.80
2018-11-21T04:31:53.528Z,16.70
2018-11-21T04:34:24.110Z,21.90
2018-11-21T04:36:52.895Z,14.90
2018-11-21T04:39:21.702Z,15.87
2018-11-21T04:41:51.478Z,15.30
2018-11-21T04:44:20.255Z,14.97
2018-11-21T04:46:49.129Z,14.90
2018-11-21T04:49:17.867Z,15.23
2018-11-21T04:51:46.657Z,14.37
2018-11-21T04:54:15.511Z,16.37
2018-11-21T04:56:44.308Z,16.10
2018-11-21T04:59:13.095Z,18.97
2018-11-21T05:01:42.108Z,19.03
2018-11-21T05:04:10.955Z,18.10
2018-11-21T05:06:39.782Z,16.87
2018-11-21T05:09:10.332Z,14.73
2018-11-21T05:11:39.129Z,17.47
2018-11-21T05:14:08.484Z,15.70
2018-11-21T05:16:37.284Z,15.53
2018-11-21T05:19:06.579Z,15.70
2018-11-21T05:21:35.881Z,13.57
2018-11-21T05:24:04.675Z,15.17
2018-11-21T05:26:33.549Z,15.57
2018-11-21T05:29:02.414Z,14.50
2018-11-21T05:31:31.203Z,15.50
2018-11-21T05:33:59.990Z,16.47
2018-11-21T05:36:28.790Z,17.57
2018-11-21T05:38:57.537Z,16.27
2018-11-21T05:41:26.385Z,19.03
2018-11-21T05:43:55.141Z,20.27
2018-11-21T05:46:23.941Z,16.10
2018-11-21T05:48:52.737Z,15.57
2018-11-21T05:51:21.534Z,15.47
2018-11-21T05:53:50.318Z,14.53
2018-11-21T05:56:19.077Z,13.63
2018-11-21T05:58:47.898Z,16.50
2018-11-21T06:01:16.651Z,16.07
2018-11-21T06:03:45.461Z,15.83
2018-11-21T06:06:14.223Z,16.93
2018-11-21T06:08:44.307Z,15.77
2018-11-21T06:11:13.085Z,15.23
2018-11-21T06:13:41.875Z,18.07
2018-11-21T06:16:10.649Z,17.80
2018-11-21T06:18:40.570Z,16.33
2018-11-21T06:21:09.370Z,17.10
2018-11-21T06:23:38.120Z,19.77
2018-11-21T06:26:06.983Z,18.87
2018-11-21T06:28:36.454Z,20.90
2018-11-21T06:31:05.477Z,19.13
2018-11-21T06:33:35.658Z,18.93
2018-11-21T06:36:04.443Z,24.77
2018-11-21T06:38:33.470Z,19.53
2018-11-21T06:41:02.340Z,21.67
2018-11-21T06:43:31.153Z,16.93
2018-11-21T06:45:59.999Z,18.30
2018-11-21T06:48:28.828Z,18.43
2018-11-21T06:50:57.714Z,21.13
2018-11-21T06:53:26.611Z,20.60
2018-11-21T06:55:55.430Z,15.73
2018-11-21T06:58:24.351Z,16.47
2018-11-21T07:00:53.138Z,19.60
2018-11-21T07:03:21.998Z,20.03
2018-11-21T07:05:50.813Z,19.03
2018-11-21T07:08:19.609Z,18.00
2018-11-21T07:10:48.470Z,18.73
2018-11-21T07:13:17.744Z,23.10
2018-11-21T07:15:46.576Z,19.87
2018-11-21T07:18:15.960Z,20.13
2018-11-21T07:20:44.747Z,26.03
2018-11-21T07:23:13.558Z,23.33
2018-11-21T07:25:43.000Z,26.20
2018-11-21T07:30:40.592Z,36.57
2018-11-21T07:33:09.401Z,18.07
2018-11-21T07:35:38.244Z,17.90
2018-11-21T07:38:07.052Z,16.07
2018-11-21T07:40:35.839Z,17.60
2018-11-21T07:43:04.865Z,20.83
2018-11-21T07:45:34.839Z,20.43
2018-11-21T07:48:03.637Z,19.37
2018-11-21T07:50:32.441Z,18.20
2018-11-21T07:53:01.249Z,18.57
2018-11-21T07:55:30.056Z,18.07
2018-11-21T07:58:07.550Z,19.27
2018-11-21T08:01:24.310Z,18.67
2018-11-21T08:03:54.929Z,19.10
2018-11-21T08:06:42.855Z,21.50
2018-11-21T08:09:39.850Z,18.07
2018-11-21T08:12:39.977Z,21.43
2018-11-21T08:15:40.188Z,19.33
2018-11-21T08:18:30.938Z,17.07
2018-11-21T08:21:17.090Z,17.37
2018-11-21T08:24:03.849Z,16.63
2018-11-21T08:26:51.773Z,16.97
2018-11-21T08:29:21.179Z,20.03
2018-11-21T08:31:49.993Z,16.57
2018-11-21T08:34:19.023Z,18.37
2018-11-21T08:36:47.819Z,14.63
2018-11-21T08:39:16.646Z,18.37
2018-11-21T08:41:46.631Z,20.13
2018-11-21T08:44:15.475Z,19.63
2018-11-21T08:46:44.448Z,22.80
2018-11-21T08:49:13.199Z,18.13
2018-11-21T08:51:42.108Z,18.57
2018-11-21T08:54:10.930Z,16.63
2018-11-21T08:56:39.719Z,18.97
2018-11-21T08:59:08.518Z,16.10
2018-11-21T09:01:37.300Z,17.30
2018-11-21T09:04:06.251Z,15.77
2018-11-21T09:06:35.061Z,15.53
2018-11-21T09:09:05.408Z,17.47
2018-11-21T09:11:34.235Z,13.97
2018-11-21T09:14:03.053Z,15.60
2018-11-21T09:16:31.919Z,20.37
2018-11-21T09:19:00.730Z,15.57
2018-11-21T09:21:29.490Z,14.53
2018-11-21T09:23:58.331Z,16.40
2018-11-21T09:26:27.161Z,16.00
2018-11-21T09:28:55.950Z,15.60
2018-11-21T09:31:24.747Z,16.60
2018-11-21T09:33:53.590Z,13.90
2018-11-21T09:36:22.470Z,13.93
2018-11-21T09:38:51.370Z,14.07
2018-11-21T09:41:20.235Z,12.97
2018-11-21T09:43:49.266Z,17.93
2018-11-21T09:46:18.048Z,16.40
2018-11-21T09:48:46.959Z,15.07
2018-11-21T09:51:15.684Z,13.57
2018-11-21T09:53:44.500Z,14.33
2018-11-21T09:56:13.943Z,15.03
2018-11-21T09:58:42.835Z,13.73
2018-11-21T10:01:47.876Z,14.90
2018-11-21T10:04:17.218Z,12.63
2018-11-21T10:06:46.457Z,12.80
2018-11-21T10:09:17.718Z,12.43
2018-11-21T10:11:47.650Z,15.50
2018-11-21T10:14:16.802Z,12.80
2018-11-21T10:16:45.696Z,13.13
2018-11-21T10:19:14.500Z,17.43
2018-11-21T10:21:43.308Z,13.10
2018-11-21T10:24:12.121Z,16.07
2018-11-21T10:26:41.458Z,19.63
2018-11-21T10:29:10.264Z,27.20
2018-11-21T10:31:39.369Z,12.13
2018-11-21T10:34:08.190Z,17.03
2018-11-21T10:36:38.468Z,12.30
2018-11-21T10:39:09.108Z,14.77
2018-11-21T10:41:38.006Z,15.50
2018-11-21T10:44:07.013Z,11.97
2018-11-21T10:46:35.807Z,13.37
2018-11-21T10:49:04.649Z,12.97
2018-11-21T10:51:33.527Z,12.73
2018-11-21T10:54:03.668Z,19.40
2018-11-21T10:56:32.512Z,12.23
2018-11-21T10:59:01.282Z,14.23
2018-11-21T11:01:47.774Z,13.50
2018-11-21T11:04:31.061Z,12.97
2018-11-21T11:07:39.385Z,14.20
2018-11-21T11:10:16.786Z,13.73
2018-11-21T11:13:03.337Z,14.50
2018-11-21T11:16:00.317Z,12.80
2018-11-21T11:18:46.680Z,14.03
2018-11-21T11:21:33.748Z,12.80
2018-11-21T11:24:27.101Z,12.13
2018-11-21T11:27:13.564Z,12.50
2018-11-21T11:29:59.310Z,18.13
2018-11-21T11:32:59.138Z,12.60
2018-11-21T11:35:45.835Z,13.23
2018-11-21T11:38:38.962Z,15.13
2018-11-21T11:41:42.031Z,12.70
2018-11-21T11:44:43.321Z,13.37
2018-11-21T11:47:32.799Z,15.47
2018-11-21T11:50:23.687Z,13.77
2018-11-21T11:53:02.225Z,17.13
2018-11-21T11:55:56.900Z,12.30
2018-11-21T11:58:45.885Z,13.90
2018-11-21T12:01:36.495Z,12.27
2018-11-21T12:04:24.738Z,13.10
2018-11-21T12:07:24.851Z,14.20
2018-11-21T12:10:18.423Z,14.23
2018-11-21T12:13:04.674Z,13.93
2018-11-21T12:15:52.556Z,15.77
2018-11-21T12:18:39.284Z,16.07
2018-11-21T12:21:30.867Z,34.27
2018-11-21T12:24:17.173Z,34.40
2018-11-21T12:27:20.058Z,333.23
2018-11-21T12:30:07.966Z,87.17
2018-11-21T12:32:54.470Z,122.27
2018-11-21T12:35:50.673Z,21.17
2018-11-21T12:38:50.612Z,35.23
2018-11-21T12:41:38.474Z,16.70
2018-11-21T12:44:38.366Z,37.00
2018-11-21T12:47:26.386Z,117.50
2018-11-21T12:50:17.075Z,40.47
2018-11-21T12:53:04.976Z,65.87
2018-11-21T12:55:52.897Z,84.77
2018-11-21T12:58:36.594Z,23.90
2018-11-21T13:01:23.945Z,41.10
2018-11-21T13:04:08.504Z,69.20
2018-11-21T13:07:01.984Z,73.10
2018-11-21T13:09:52.884Z,23.23
2018-11-21T13:12:37.583Z,17.47
2018-11-21T13:15:43.475Z,24.03
2018-11-21T13:18:44.991Z,180.63
2018-11-21T13:21:31.480Z,52.27
2018-11-21T13:24:09.574Z,33.53
2018-11-21T13:26:57.395Z,35.37
2018-11-21T13:29:43.885Z,22.20
2018-11-21T13:32:30.091Z,15.90
2018-11-21T13:35:36.117Z,26.30
2018-11-21T13:38:23.339Z,34.30
2018-11-21T13:41:15.333Z,38.47
2018-11-21T13:44:08.982Z,59.83
2018-11-21T13:46:55.986Z,19.07
2018-11-21T13:49:43.986Z,22.80
2018-11-21T13:52:50.035Z,18.83
2018-11-21T13:55:18.746Z,19.17
2018-11-21T13:57:47.943Z,19.87
2018-11-21T14:00:17.070Z,32.37
2018-11-21T14:02:45.809Z,24.27
2018-11-21T14:05:14.542Z,111.67
2018-11-21T14:07:43.363Z,38.30
2018-11-21T14:10:12.689Z,42.13
2018-11-21T14:12:41.435Z,197.13
2018-11-21T14:15:10.367Z,295.30
2018-11-21T14:17:39.169Z,245.77
2018-11-21T14:20:11.615Z,162.00
2018-11-21T14:22:40.441Z,87.10
2018-11-21T14:25:10.820Z,193.93
2018-11-21T14:27:39.635Z,90.40
2018-11-21T14:30:13.491Z,80.43
2018-11-21T14:32:43.357Z,59.43
2018-11-21T14:35:13.421Z,173.60
2018-11-21T14:37:42.818Z,86.73
2018-11-21T14:40:14.449Z,65.60
2018-11-21T14:42:43.457Z,56.57
2018-11-21T14:45:17.205Z,66.07
2018-11-21T14:47:48.112Z,42.27
2018-11-21T14:50:24.765Z,27.33
2018-11-21T14:52:53.585Z,34.93
2018-11-21T14:55:22.372Z,28.80
2018-11-21T14:57:51.130Z,25.17
2018-11-21T15:00:23.518Z,22.93
2018-11-21T15:02:52.343Z,30.23
2018-11-21T15:05:21.097Z,29.57
2018-11-21T15:07:49.887Z,26.07
2018-11-21T15:10:18.631Z,24.00
2018-11-21T15:12:47.406Z,28.20
2018-11-21T15:15:23.944Z,39.83
2018-11-21T15:17:56.725Z,53.80
2018-11-21T15:20:26.214Z,30.57
2018-11-21T15:22:54.995Z,28.53
2018-11-21T15:25:24.627Z,28.70
2018-11-21T15:27:53.416Z,19.73
2018-11-21T15:30:24.245Z,19.87
2018-11-21T15:32:53.032Z,27.80
2018-11-21T15:35:21.962Z,186.17
2018-11-21T15:37:51.117Z,193.57
2018-11-21T15:40:22.524Z,154.60
2018-11-21T15:42:51.975Z,120.27
2018-11-21T15:45:22.130Z,281.53
2018-11-21T15:47:55.480Z,330.40
2018-11-21T15:50:24.370Z,98.43
2018-11-21T15:52:53.287Z,112.00
2018-11-21T15:55:22.643Z,154.77
2018-11-21T15:57:51.467Z,59.90
2018-11-21T16:00:23.588Z,280.27
2018-11-21T16:02:54.364Z,98.30
2018-11-21T16:05:23.578Z,65.80
2018-11-21T16:07:52.450Z,42.23
2018-11-21T16:10:25.833Z,36.37
2018-11-21T16:12:54.996Z,113.60
2018-11-21T16:15:25.898Z,62.83
2018-11-21T16:17:54.709Z,66.27
2018-11-21T16:20:23.581Z,55.70
2018-11-21T16:22:52.367Z,29.00
2018-11-21T16:25:22.461Z,23.87
2018-11-21T16:27:51.278Z,33.00
2018-11-21T16:30:21.704Z,25.83
2018-11-21T16:32:50.524Z,23.20
2018-11-21T16:35:19.320Z,22.33
2018-11-21T16:37:48.087Z,19.27
2018-11-21T16:40:24.787Z,18.87
2018-11-21T16:42:55.294Z,25.00
2018-11-21T16:45:26.810Z,35.23
2018-11-21T16:47:55.920Z,26.47
2018-11-21T16:50:24.718Z,18.87
2018-11-21T16:52:53.739Z,21.53
2018-11-21T16:55:24.333Z,20.87
2018-11-21T16:57:54.008Z,23.40
2018-11-21T17:00:24.454Z,18.73
2018-11-21T17:02:53.271Z,16.23
2018-11-21T17:05:22.924Z,16.13
2018-11-21T17:07:51.967Z,16.50
2018-11-21T17:10:22.294Z,16.53
2018-11-21T17:12:51.048Z,14.50
2018-11-21T17:15:21.537Z,18.87
2018-11-21T17:17:50.335Z,32.37
2018-11-21T17:20:20.716Z,24.77
2018-11-21T17:22:50.948Z,32.07
2018-11-21T17:25:21.270Z,25.23
2018-11-21T17:27:50.264Z,16.80
2018-11-21T17:30:20.128Z,16.33
2018-11-21T17:32:49.424Z,18.40
2018-11-21T17:35:19.258Z,14.00
2018-11-21T17:37:48.427Z,18.43
2018-11-21T17:40:23.558Z,63.40
2018-11-21T17:42:52.822Z,56.77
2018-11-21T17:45:21.779Z,63.47
2018-11-21T17:47:50.636Z,35.57
2018-11-21T17:50:20.928Z,80.23
2018-11-21T17:52:50.530Z,58.87
2018-11-21T17:55:22.506Z,22.60
2018-11-21T17:57:51.273Z,57.20
2018-11-21T18:00:21.422Z,111.10
2018-11-21T18:02:50.204Z,136.63
2018-11-21T18:05:20.676Z,139.83
2018-11-21T18:07:49.642Z,150.53
2018-11-21T18:10:20.214Z,36.40
2018-11-21T18:12:49.114Z,45.43
2018-11-21T18:15:18.526Z,45.53
2018-11-21T18:17:48.519Z,60.43
2018-11-21T18:20:17.998Z,73.73
2018-11-21T18:22:47.574Z,110.57
2018-11-21T18:25:20.634Z,96.00
2018-11-21T18:27:49.655Z,68.67
2018-11-21T18:30:22.297Z,118.00
2018-11-21T18:32:51.347Z,53.37
2018-11-21T18:35:43.787Z,32.87
2018-11-21T18:38:02.119Z,45.37
2018-11-21T18:40:31.851Z,63.13
2018-11-21T18:43:00.660Z,67.07
2018-11-21T18:45:32.907Z,104.10
2018-11-21T18:48:05.155Z,81.90
2018-11-21T18:50:33.938Z,225.00
2018-11-21T18:53:04.168Z,60.20
2018-11-21T18:55:35.392Z,96.70
2018-11-21T18:58:40.206Z,97.13
2018-11-21T19:01:09.088Z,68.50
2018-11-21T19:03:37.837Z,39.90
2018-11-21T19:06:07.861Z,26.60
2018-11-21T19:08:36.715Z,31.93
2018-11-21T19:11:05.664Z,29.63
2018-11-21T19:13:34.450Z,48.57
2018-11-21T19:16:03.302Z,173.03
2018-11-21T19:18:32.109Z,222.97
2018-11-21T19:21:01.052Z,108.23
2018-11-21T19:23:30.360Z,73.77
2018-11-21T19:25:59.153Z,197.37
2018-11-21T19:28:28.056Z,82.90
2018-11-21T19:30:56.885Z,52.80
2018-11-21T19:33:25.620Z,64.80
2018-11-21T19:35:54.457Z,48.60
2018-11-21T19:38:23.248Z,78.10
2018-11-21T19:40:52.100Z,70.43
2018-11-21T19:43:20.935Z,196.30
2018-11-21T19:45:51.798Z,200.47
2018-11-21T19:48:20.624Z,98.67
2018-11-21T19:50:51.529Z,53.07
2018-11-21T19:53:20.265Z,69.23
2018-11-21T19:55:49.082Z,29.77
2018-11-21T19:58:17.978Z,89.57
2018-11-21T20:00:46.758Z,62.77
2018-11-21T20:03:15.606Z,51.23
2018-11-21T20:05:44.344Z,47.50
2018-11-21T20:08:13.157Z,44.97
2018-11-21T20:10:42.185Z,29.83
2018-11-21T20:13:11.681Z,32.67
2018-11-21T20:15:39.854Z,32.47
2018-11-21T20:18:08.617Z,45.93
2018-11-21T20:20:38.031Z,28.70
2018-11-21T20:23:07.995Z,31.40
2018-11-21T20:25:36.849Z,31.07
2018-11-21T20:28:05.858Z,27.87
2018-11-21T20:30:37.424Z,28.43
2018-11-21T20:33:06.496Z,28.03
2018-11-21T20:35:35.685Z,28.47
2018-11-21T20:38:04.509Z,28.83
2018-11-21T20:40:34.652Z,22.23
2018-11-21T20:43:03.954Z,26.27
2018-11-21T20:45:32.814Z,23.80
2018-11-21T20:48:02.190Z,26.57
2018-11-21T20:50:30.983Z,36.40
2018-11-21T20:52:59.726Z,41.17
2018-11-21T20:55:30.120Z,41.20
2018-11-21T20:57:59.046Z,35.97
2018-11-21T21:00:29.335Z,36.10
2018-11-21T21:02:59.497Z,35.07
2018-11-21T21:05:28.823Z,31.43
2018-11-21T21:07:57.677Z,23.33
2018-11-21T21:10:27.950Z,22.47
2018-11-21T21:12:56.847Z,22.70
2018-11-21T21:15:25.682Z,28.43
2018-11-21T21:17:55.081Z,28.60
2018-11-21T21:20:25.463Z,24.33
2018-11-21T21:22:55.830Z,20.93
2018-11-21T21:25:26.232Z,22.20
2018-11-21T21:27:55.253Z,24.13
2018-11-21T21:30:25.881Z,23.93
2018-11-21T21:32:54.724Z,25.50
2018-11-21T21:35:24.719Z,23.37
2018-11-21T21:37:53.751Z,24.33
2018-11-21T21:40:22.922Z,25.27
2018-11-21T21:42:51.761Z,22.73
2018-11-21T21:45:22.148Z,22.60
2018-11-21T21:47:50.932Z,23.53
2018-11-21T21:50:21.431Z,22.27
2018-11-21T21:52:50.233Z,22.80
2018-11-21T21:55:20.396Z,25.23
2018-11-21T21:57:49.215Z,20.77
2018-11-21T22:00:19.680Z,19.47
2018-11-21T22:02:48.800Z,21.80
2018-11-21T22:05:17.683Z,22.73
2018-11-21T22:07:46.584Z,22.77
2018-11-21T22:10:16.866Z,23.13
2018-11-21T22:12:45.756Z,21.40
2018-11-21T22:15:30.814Z,22.00
2018-11-21T22:18:01.282Z,22.60
2018-11-21T22:20:30.164Z,21.43
2018-11-21T22:22:58.958Z,21.93
2018-11-21T22:25:27.708Z,23.83
2018-11-21T22:27:56.546Z,24.33
2018-11-21T22:30:25.619Z,21.97
2018-11-21T22:32:55.605Z,25.33
2018-11-21T22:35:26.312Z,23.13
